Tuesday, November 21, 2017, 10:56 PM EST
Back to Local

KGSB, Seymour-johnson Air Force Base

Location: Goldsboro, NC, United States Lat: 35.333
Local Time: 10:56 PM EST ( 3:56 GMT) Lon: -77.967
Time Zone: US/Eastern Elev: 108 ft

Show me the last for .
Show Decoded

2017-11-21 21:56 METAR KGSB 220256Z AUTO 00000KT 10SM FEW080 14/11 A3003 RMK AO2 SLP172 T01350105
                 57019 $ =
2017-11-21 20:56 METAR KGSB 220156Z AUTO 12005KT 10SM BKN080 14/11 A3004 RMK AO2 SLP176 T01400108
                 $ =
2017-11-21 19:56 METAR KGSB 220056Z AUTO 00000KT 10SM FEW065 BKN075 13/10 A3007 RMK AO2 SLP186
                 T01310103 $ =
2017-11-21 18:56 METAR KGSB 212356Z AUTO 06003KT 10SM BKN065 14/10 A3009 RMK AO2 SLP193 T01440104
                 10185 20139 57007 $ =
2017-11-21 17:56 METAR KGSB 212256Z AUTO 00000KT 10SM FEW060 BKN085 14/10 A3009 RMK AO2 SLP193
                 T01430103 $ =
2017-11-21 16:56 METAR KGSB 212156Z AUTO 09003KT 10SM BKN050 BKN075 16/10 A3010 RMK AO2 SLP196
                 T01580103 $ =
2017-11-21 15:56 METAR KGSB 212056Z AUTO 10005KT 10SM FEW080 17/10 A3011 RMK AO2 SLP200 T01720096
                 55014 $ =
2017-11-21 14:56 METAR KGSB 211956Z AUTO 09006KT 10SM BKN075 18/10 A3011 RMK AO2 SLP200 T01800096
                 $ =
2017-11-21 13:56 METAR KGSB 211856Z AUTO 12006KT 10SM SCT070 18/09 A3011 RMK AO2 SLP200 T01830091
                 $ =
2017-11-21 12:56 METAR KGSB 211756Z AUTO 12005KT 10SM CLR 18/07 A3015 RMK AO2 SLP213 T01750072
                 10175 21009 57031 $ =
2017-11-21 11:56 METAR KGSB 211656Z AUTO 11004KT 10SM CLR 16/07 A3019 RMK AO2 SLP227 T01600067 $
                 =
2017-11-21 10:56 METAR KGSB 211556Z AUTO 00000KT 10SM FEW050 13/06 A3021 RMK AO2 SLP234 T01290056
                 $ =
2017-11-21 09:56 METAR KGSB 211456Z 14004KT 10SM SCT050 SCT200 09/03 A3024 RMK AO2A SLP244
                 T00870033 55001 $ =
2017-11-21 08:56 METAR KGSB 211356Z 00000KT 6SM BR FEW020 FEW042 BKN200 05/02 A3024 RMK AO2A
                 SLP244 T00500017 $ =
2017-11-21 08:38 METAR KGSB 211338Z 00000KT 6SM BR FEW020 SCT042 SCT200 04/01 A3025 RMK SLP248 $
                 =
2017-11-21 07:56 METAR KGSB 211256Z 00000KT 6SM BR SCT200 03/00 A3024 RMK AO2A SLP244 T00251003 $
                 =
2017-11-21 06:56 METAR KGSB 211156Z AUTO 00000KT 10SM CLR M01/M03 A3024 RMK AO2 SLP244 T10101027
                 10009 21011 53002 $ =
2017-11-21 05:56 METAR KGSB 211056Z AUTO 00000KT 10SM CLR 00/M02 A3024 RMK AO2 SLP244 T10051022 $
                 =
2017-11-21 04:56 METAR KGSB 210956Z AUTO 00000KT 10SM CLR M01/M02 A3023 RMK AO2 SLP241 T10081025
                 $ =
2017-11-21 03:56 METAR KGSB 210856Z AUTO 00000KT 10SM CLR 00/M02 A3024 RMK AO2 SLP244 T00001024
                 55003 $ =
2017-11-21 02:56 METAR KGSB 210756Z AUTO 00000KT 10SM CLR 00/M02 A3024 RMK AO2 SLP244 T10011019 $
                 =
2017-11-21 01:56 METAR KGSB 210656Z AUTO 00000KT 10SM CLR 01/M01 A3024 RMK AO2 SLP244 T00061013 $
                 =
2017-11-21 00:56 METAR KGSB 210556Z AUTO 00000KT 10SM CLR 01/M01 A3024 RMK AO2 SLP244 T00111011
                 10060 20010 58002 $ =
2017-11-20 23:56 METAR KGSB 210456Z AUTO 00000KT 10SM CLR 02/M01 A3025 RMK AO2 SLP247 T00161013
                 401550014 $ =

Support USWX by starting your Amazon purchase here.